Time;durP1;ratioP1;P1;durP2;ratioP2;P2;SDS_P1;SDS_P2;PMS_P1;PMS_P2;Temp;Humidity;BMP_temperature;BMP_pressure;BME280_temperature;BME280_humidity;BME280_pressure;Samples;Min_cycle;Max_cycle;Signal;HPM_P1;HPM_P2
2022/07/15 00:01:00;;;;;;;3.63;1.40;;;16.30;1.00;;;;;;5058735;28;20185;-94
2022/07/15 00:03:36;;;;;;;4.60;1.40;;;16.40;1.00;;;;;;5059106;28;20171;-93
2022/07/15 00:06:12;;;;;;;2.10;1.03;;;16.50;1.00;;;;;;5059088;28;20183;-95
2022/07/15 00:08:38;;;;;;;5.13;1.50;;;16.60;1.00;;;;;;5058459;28;20160;-94
2022/07/15 00:11:04;;;;;;;3.67;1.50;;;16.20;1.00;;;;;;5058830;28;20271;-94
2022/07/15 00:13:31;;;;;;;6.10;1.70;;;16.20;1.00;;;;;;5058830;28;20228;-94
2022/07/15 00:15:59;;;;;;;7.70;1.57;;;16.30;1.00;;;;;;5058729;28;20188;-95
2022/07/15 00:18:25;;;;;;;3.27;1.40;;;16.30;1.00;;;;;;5058666;28;20168;-94
2022/07/15 00:20:50;;;;;;;4.10;1.33;;;16.30;1.00;;;;;;5058640;28;20215;-95
2022/07/15 00:23:16;;;;;;;2.07;1.40;;;16.20;1.00;;;;;;5059157;28;20182;-94
2022/07/15 00:25:44;;;;;;;4.07;1.20;;;16.10;1.00;;;;;;5059197;28;20183;-94
2022/07/15 00:28:10;;;;;;;4.30;1.40;;;15.90;1.00;;;;;;5058475;28;20180;-95
2022/07/15 00:30:38;;;;;;;6.50;1.40;;;15.80;1.00;;;;;;5058428;28;20180;-95
2022/07/15 00:33:10;;;;;;;3.40;1.20;;;16.00;1.00;;;;;;5058501;28;20184;-94
2022/07/15 00:35:37;;;;;;;3.73;1.40;;;16.00;1.00;;;;;;5059013;28;20203;-95
2022/07/15 00:38:06;;;;;;;4.73;1.50;;;15.70;1.00;;;;;;5058517;28;20179;-95
2022/07/15 00:40:40;;;;;;;4.97;1.90;;;15.80;1.00;;;;;;5058979;28;20200;-95
2022/07/15 00:43:06;;;;;;;3.60;1.47;;;15.80;1.00;;;;;;5058436;28;20152;-94
2022/07/15 00:45:31;;;;;;;4.97;1.47;;;15.60;7.30;;;;;;5058774;28;20202;-94
2022/07/15 00:48:06;;;;;;;6.63;2.83;;;15.80;1.00;;;;;;5058650;28;20171;-95
2022/07/15 00:50:32;;;;;;;3.20;1.30;;;15.70;6.40;;;;;;5058780;28;20195;-94
2022/07/15 00:53:07;;;;;;;1.63;1.13;;;15.70;15.60;;;;;;5058335;28;20156;-95
2022/07/15 00:55:41;;;;;;;3.70;1.40;;;15.60;3.80;;;;;;5058089;28;20258;-94
2022/07/15 00:58:18;;;;;;;3.77;1.43;;;15.70;34.60;;;;;;5058229;28;20216;-95
2022/07/15 01:00:55;;;;;;;2.30;1.33;;;15.60;55.70;;;;;;5058620;28;20188;-95
2022/07/15 01:03:21;;;;;;;2.30;1.40;;;15.60;99.90;;;;;;5058282;28;20144;-95
2022/07/15 01:05:48;;;;;;;3.13;1.60;;;15.20;99.90;;;;;;5058727;28;20224;-94
2022/07/15 01:08:17;;;;;;;4.70;1.80;;;15.40;99.90;;;;;;5058097;28;20240;-94
2022/07/15 01:10:43;;;;;;;3.90;1.70;;;15.40;99.90;;;;;;5058122;28;20184;-95
2022/07/15 01:13:09;;;;;;;4.60;1.33;;;15.40;99.90;;;;;;5058042;28;20179;-95
2022/07/15 01:15:35;;;;;;;2.80;1.20;;;15.30;99.90;;;;;;5057977;28;20212;-94
2022/07/15 01:18:03;;;;;;;2.63;1.70;;;15.30;99.90;;;;;;5058541;28;20172;-95
2022/07/15 01:20:30;;;;;;;3.53;1.30;;;15.30;99.90;;;;;;5057930;28;20172;-95
2022/07/15 01:22:55;;;;;;;4.43;1.40;;;15.40;99.90;;;;;;5057914;28;20194;-94
2022/07/15 01:25:21;;;;;;;3.90;1.53;;;15.20;99.90;;;;;;5057981;28;20165;-95
2022/07/15 01:27:56;;;;;;;4.87;1.40;;;15.20;99.90;;;;;;5057587;28;20184;-95
2022/07/15 01:30:22;;;;;;;4.13;1.33;;;15.30;99.90;;;;;;5058356;28;20184;-95
2022/07/15 01:32:48;;;;;;;2.13;1.10;;;15.50;99.90;;;;;;5057965;28;20183;-95
2022/07/15 01:35:17;;;;;;;3.63;1.30;;;15.20;99.90;;;;;;5057863;28;20161;-94
2022/07/15 01:37:44;;;;;;;3.33;1.60;;;15.20;99.90;;;;;;5058385;28;20161;-96
2022/07/15 01:40:10;;;;;;;1.70;1.20;;;15.30;99.90;;;;;;5057818;28;20201;-94
2022/07/15 01:42:43;;;;;;;3.70;1.40;;;15.20;99.90;;;;;;5057747;28;20184;-94
2022/07/15 01:45:10;;;;;;;2.57;1.20;;;15.30;99.90;;;;;;5057784;28;20172;-95
2022/07/15 01:47:47;;;;;;;7.00;1.90;;;15.60;99.90;;;;;;5057827;28;20157;-94
2022/07/15 01:50:13;;;;;;;4.40;1.47;;;15.20;99.90;;;;;;5057640;28;20214;-94
2022/07/15 01:52:39;;;;;;;4.10;1.30;;;15.20;99.90;;;;;;5057776;28;20195;-94
2022/07/15 01:55:12;;;;;;;3.87;1.50;;;15.50;99.90;;;;;;5057778;28;20163;-94
2022/07/15 01:57:40;;;;;;;3.30;1.27;;;15.20;99.90;;;;;;5057598;28;20192;-94
2022/07/15 02:00:08;;;;;;;5.77;1.53;;;15.30;99.90;;;;;;5060711;28;20211;-95
2022/07/15 02:02:36;;;;;;;3.47;1.57;;;15.20;99.90;;;;;;5061285;28;20296;-95
2022/07/15 02:05:03;;;;;;;4.17;1.33;;;15.20;99.90;;;;;;5061239;28;20156;-95
2022/07/15 02:07:28;;;;;;;3.67;1.40;;;15.10;99.90;;;;;;5061318;28;20171;-94
2022/07/15 02:09:54;;;;;;;2.47;1.33;;;15.10;99.90;;;;;;5061019;28;20188;-95
2022/07/15 02:12:29;;;;;;;5.40;1.70;;;15.10;99.90;;;;;;5061782;28;20187;-95
2022/07/15 02:14:54;;;;;;;3.67;1.67;;;15.10;99.90;;;;;;5061101;28;20187;-95
2022/07/15 02:17:20;;;;;;;3.60;1.37;;;14.90;99.90;;;;;;5061507;28;20207;-95
2022/07/15 02:19:51;;;;;;;4.63;1.60;;;15.20;99.90;;;;;;5061017;28;20195;-95
2022/07/15 02:22:17;;;;;;;4.03;1.50;;;15.00;99.90;;;;;;5061057;28;20149;-95
2022/07/15 02:24:43;;;;;;;4.37;1.40;;;14.80;99.90;;;;;;5060909;28;20232;-95
2022/07/15 02:27:08;;;;;;;3.20;1.30;;;14.80;99.90;;;;;;5060655;28;20157;-94
2022/07/15 02:29:40;;;;;;;2.17;1.10;;;14.90;99.90;;;;;;5060832;28;20192;-95
2022/07/15 02:32:06;;;;;;;6.67;1.50;;;14.80;99.90;;;;;;5061266;28;20169;-95
2022/07/15 02:34:31;;;;;;;8.07;1.93;;;14.80;99.90;;;;;;5060753;28;20187;-95
2022/07/15 02:37:06;;;;;;;4.30;1.73;;;14.80;99.90;;;;;;5060660;28;20207;-94
2022/07/15 02:39:31;;;;;;;2.43;1.20;;;14.80;99.90;;;;;;5060593;28;20214;-95
2022/07/15 02:41:57;;;;;;;3.50;1.47;;;14.80;99.90;;;;;;5061142;28;20165;-95
2022/07/15 02:44:28;;;;;;;6.13;1.53;;;14.70;99.90;;;;;;5060517;28;20160;-95
2022/07/15 02:46:54;;;;;;;3.40;1.57;;;14.80;99.90;;;;;;5060550;28;20184;-95
2022/07/15 02:49:19;;;;;;;7.23;1.40;;;14.70;99.90;;;;;;5060433;28;20165;-94
2022/07/15 02:51:53;;;;;;;5.43;1.40;;;14.80;99.90;;;;;;5060393;28;20160;-94
2022/07/15 02:54:19;;;;;;;5.23;1.77;;;14.80;99.90;;;;;;5060330;28;20192;-95
2022/07/15 02:56:45;;;;;;;4.93;1.37;;;15.10;99.90;;;;;;5060752;28;20184;-94
2022/07/15 02:59:10;;;;;;;5.07;1.80;;;14.60;99.90;;;;;;5060151;28;20180;-93
2022/07/15 03:01:45;;;;;;;5.23;1.60;;;14.60;99.90;;;;;;5060224;28;20159;-96
2022/07/15 03:04:10;;;;;;;3.53;1.60;;;14.50;99.90;;;;;;5060212;28;20153;-94
2022/07/15 03:06:36;;;;;;;3.30;1.30;;;14.60;99.90;;;;;;5059910;28;20203;-94
2022/07/15 03:09:11;;;;;;;4.77;1.77;;;14.40;99.90;;;;;;5059903;28;20179;-95
2022/07/15 03:11:37;;;;;;;6.33;1.57;;;14.40;99.90;;;;;;5059912;28;20152;-94
2022/07/15 03:14:02;;;;;;;6.37;1.57;;;14.40;99.90;;;;;;5060355;28;20171;-94
2022/07/15 03:16:37;;;;;;;3.60;1.50;;;14.20;99.90;;;;;;5059791;28;20202;-95
2022/07/15 03:19:03;;;;;;;2.97;1.50;;;14.30;99.90;;;;;;5059769;28;20155;-94
2022/07/15 03:21:28;;;;;;;5.13;1.80;;;14.10;99.90;;;;;;5043364;28;20165;-94
2022/07/15 03:23:57;;;;;;;5.43;1.90;;;14.10;99.90;;;;;;5059586;28;20183;-94
2022/07/15 03:26:23;;;;;;;4.10;1.53;;;13.80;99.90;;;;;;5059665;28;20156;-95
2022/07/15 03:28:49;;;;;;;5.07;1.60;;;14.00;99.90;;;;;;5059969;28;20206;-94
2022/07/15 03:31:15;;;;;;;4.70;1.90;;;14.20;99.90;;;;;;5059466;28;20172;-95
2022/07/15 03:33:49;;;;;;;10.47;1.70;;;13.90;99.90;;;;;;5059567;28;20236;-95
2022/07/15 03:36:15;;;;;;;6.33;1.73;;;13.90;99.90;;;;;;5059905;28;20195;-94
2022/07/15 03:38:40;;;;;;;3.57;1.67;;;13.90;99.90;;;;;;5059825;28;20160;-94
2022/07/15 03:41:15;;;;;;;3.40;1.50;;;13.80;99.90;;;;;;5059328;28;20179;-95
2022/07/15 03:43:41;;;;;;;3.07;1.60;;;13.70;99.90;;;;;;5059874;28;20194;-95
2022/07/15 03:46:07;;;;;;;4.87;2.03;;;13.60;99.90;;;;;;5059735;28;20156;-94
2022/07/15 03:48:35;;;;;;;6.03;1.80;;;13.90;99.90;;;;;;5059359;28;20168;-94
2022/07/15 03:51:03;;;;;;;6.20;1.70;;;13.70;99.90;;;;;;5059089;28;20181;-94
2022/07/15 03:53:29;;;;;;;3.70;1.73;;;13.70;99.90;;;;;;5059559;28;20161;-95
2022/07/15 03:55:55;;;;;;;3.93;1.80;;;13.60;99.90;;;;;;5059073;28;20202;-95
2022/07/15 03:58:26;;;;;;;3.63;2.00;;;13.60;99.90;;;;;;5059142;28;20160;-95
2022/07/15 04:00:51;;;;;;;3.87;1.60;;;13.70;99.90;;;;;;5059365;28;20183;-95
2022/07/15 04:03:20;;;;;;;4.40;2.00;;;13.50;99.90;;;;;;5059574;28;20156;-95
2022/07/15 04:05:51;;;;;;;4.23;1.60;;;13.50;99.90;;;;;;5058901;28;20164;-94
2022/07/15 04:08:17;;;;;;;7.33;1.57;;;13.40;99.90;;;;;;5059368;28;20168;-94
2022/07/15 04:10:42;;;;;;;4.97;1.80;;;13.40;99.90;;;;;;5058631;28;20207;-93
2022/07/15 04:13:18;;;;;;;3.40;1.30;;;13.40;99.90;;;;;;5058832;28;20149;-94
2022/07/15 04:15:46;;;;;;;8.10;1.73;;;13.40;99.90;;;;;;5058646;28;20226;-95
2022/07/15 04:18:11;;;;;;;7.37;1.90;;;13.40;99.90;;;;;;5058628;28;20172;-95
2022/07/15 04:20:40;;;;;;;3.70;1.60;;;13.40;99.90;;;;;;5058490;28;20211;-94
2022/07/15 04:23:06;;;;;;;3.10;1.73;;;13.40;99.90;;;;;;5058114;28;20176;-95
2022/07/15 04:25:32;;;;;;;5.37;1.70;;;13.50;99.90;;;;;;5058514;28;20183;-95
2022/07/15 04:27:57;;;;;;;6.73;1.63;;;13.40;99.90;;;;;;5058154;28;20183;-94
2022/07/15 04:30:32;;;;;;;7.50;2.07;;;13.40;99.90;;;;;;5058230;28;20176;-95
2022/07/15 04:32:58;;;;;;;7.13;1.83;;;13.50;99.90;;;;;;5058382;28;20148;-95
2022/07/15 04:35:24;;;;;;;6.53;2.00;;;13.40;99.90;;;;;;5058350;28;20183;-95
2022/07/15 04:37:52;;;;;;;3.23;1.40;;;13.50;99.90;;;;;;5058471;28;20173;-95
2022/07/15 04:40:18;;;;;;;3.67;1.77;;;13.40;99.90;;;;;;5058545;28;20215;-95
2022/07/15 04:42:44;;;;;;;5.20;1.40;;;13.50;99.90;;;;;;5058833;28;20169;-95
2022/07/15 04:45:37;;;;;;;6.23;1.80;;;13.30;99.90;;;;;;5058311;28;20191;-94
2022/07/15 04:50:53;;;;;;;3.67;1.87;;;13.60;99.90;;;;;;5058671;28;20243;-94
2022/07/15 04:54:08;;;;;;;5.77;2.00;;;13.80;99.90;;;;;;5058021;28;20208;-96
2022/07/15 04:56:34;;;;;;;7.43;2.33;;;14.10;99.90;;;;;;5049521;28;20196;-95
2022/07/15 04:58:59;;;;;;;5.77;1.70;;;13.90;99.90;;;;;;5058097;28;20167;-95
2022/07/15 05:01:34;;;;;;;5.97;2.10;;;13.90;99.90;;;;;;5058567;28;20193;-96
2022/07/15 05:04:01;;;;;;;4.50;1.63;;;13.80;99.90;;;;;;5058254;28;20151;-94
2022/07/15 05:06:27;;;;;;;5.53;2.07;;;13.90;99.90;;;;;;5058601;28;20169;-95
2022/07/15 05:08:56;;;;;;;4.90;1.93;;;14.20;99.90;;;;;;5058565;28;20156;-95
2022/07/15 05:11:21;;;;;;;5.73;2.27;;;14.00;99.90;;;;;;5057773;28;20239;-96
2022/07/15 05:13:47;;;;;;;4.23;1.77;;;14.00;99.90;;;;;;5057792;28;20183;-95
2022/07/15 05:16:13;;;;;;;7.17;3.07;;;14.10;99.90;;;;;;5058232;28;20208;-93
2022/07/15 05:18:47;;;;;;;9.47;2.80;;;14.30;99.90;;;;;;5058455;28;20172;-95
2022/07/15 05:21:13;;;;;;;6.73;2.37;;;14.20;99.90;;;;;;5057906;28;20172;-94
2022/07/15 05:23:56;;;;;;;8.27;2.80;;;14.30;99.90;;;;;;5058412;28;20174;-93
2022/07/15 05:26:22;;;;;;;13.83;3.17;;;14.40;99.90;;;;;;5057980;28;20168;-94
2022/07/15 05:28:50;;;;;;;9.77;2.50;;;14.60;99.90;;;;;;5058431;28;20191;-94
2022/07/15 05:31:16;;;;;;;5.77;2.47;;;14.50;99.90;;;;;;5057773;28;20235;-93
2022/07/15 05:33:42;;;;;;;7.33;2.50;;;14.60;99.90;;;;;;5058747;28;20220;-94
2022/07/15 05:36:16;;;;;;;7.07;2.60;;;14.60;99.90;;;;;;5061719;28;20204;-95
2022/07/15 05:38:42;;;;;;;9.77;3.40;;;14.80;99.90;;;;;;5061733;28;20196;-95
2022/07/15 05:41:11;;;;;;;8.30;2.50;;;14.70;99.90;;;;;;5061596;28;20181;-96
2022/07/15 05:43:45;;;;;;;6.90;2.43;;;14.80;99.90;;;;;;5061683;28;20157;-96
2022/07/15 05:46:12;;;;;;;6.53;2.03;;;15.00;99.90;;;;;;5061511;28;20180;-95
2022/07/15 05:48:39;;;;;;;7.07;2.47;;;15.00;99.90;;;;;;5061765;28;20157;-94
2022/07/15 05:51:08;;;;;;;8.07;2.73;;;14.90;99.90;;;;;;5061036;28;20180;-94
2022/07/15 05:53:33;;;;;;;8.40;2.17;;;15.00;99.90;;;;;;5061071;28;20153;-95
2022/07/15 05:55:59;;;;;;;12.77;2.87;;;15.00;99.90;;;;;;5060914;28;20199;-95
2022/07/15 05:58:25;;;;;;;4.70;2.27;;;15.20;99.90;;;;;;5061105;28;20171;-94
2022/07/15 06:00:54;;;;;;;8.17;2.10;;;15.00;99.90;;;;;;5060511;28;20279;-92
2022/07/15 06:03:20;;;;;;;6.80;2.13;;;15.30;99.90;;;;;;5059666;28;20187;-93
2022/07/15 06:05:45;;;;;;;5.43;1.70;;;15.10;99.90;;;;;;5061086;28;20172;-92
2022/07/15 06:08:11;;;;;;;6.80;2.40;;;15.10;99.90;;;;;;5060733;28;20177;-95
2022/07/15 06:10:37;;;;;;;6.17;1.63;;;15.20;99.90;;;;;;5059692;28;20272;-93
2022/07/15 06:13:03;;;;;;;5.47;1.83;;;15.20;99.90;;;;;;5060069;28;20187;-92
2022/07/15 06:15:29;;;;;;;4.27;2.10;;;15.20;99.90;;;;;;5058818;28;20188;-93
2022/07/15 06:17:56;;;;;;;6.30;1.73;;;15.30;99.90;;;;;;5059625;28;20193;-92
2022/07/15 06:20:22;;;;;;;4.47;1.80;;;15.30;99.90;;;;;;5060090;28;20244;-93
2022/07/15 06:22:48;;;;;;;4.83;2.17;;;15.30;99.90;;;;;;5060271;28;20179;-94
2022/07/15 06:25:13;;;;;;;10.07;3.03;;;15.30;99.90;;;;;;5058917;28;20192;-93
2022/07/15 06:27:39;;;;;;;7.60;1.93;;;15.40;99.90;;;;;;5056504;28;20200;-92
2022/07/15 06:30:05;;;;;;;8.43;2.30;;;15.50;99.90;;;;;;5059270;28;20204;-93
2022/07/15 06:32:31;;;;;;;5.93;2.00;;;15.50;99.90;;;;;;5059961;28;20172;-94
2022/07/15 06:34:56;;;;;;;13.37;4.33;;;15.70;99.90;;;;;;5059693;28;20239;-93
2022/07/15 06:37:22;;;;;;;7.80;2.50;;;15.70;99.90;;;;;;5058880;28;20227;-93
2022/07/15 06:39:48;;;;;;;5.83;2.67;;;15.70;99.90;;;;;;5057785;28;20196;-94
2022/07/15 06:42:14;;;;;;;6.37;2.40;;;15.80;99.90;;;;;;5056756;28;20186;-92
2022/07/15 06:44:39;;;;;;;6.43;2.27;;;16.00;99.90;;;;;;5053678;28;20248;-92
2022/07/15 06:47:06;;;;;;;11.07;2.73;;;16.40;33.20;;;;;;5054414;28;20184;-92
2022/07/15 06:49:34;;;;;;;7.90;2.10;;;15.90;34.80;;;;;;5054952;28;20287;-93
2022/07/15 06:52:00;;;;;;;6.60;2.43;;;16.00;1.00;;;;;;5056922;28;20244;-93
2022/07/15 06:54:26;;;;;;;12.60;2.53;;;16.00;1.00;;;;;;5058691;28;20180;-93
2022/07/15 06:56:52;;;;;;;7.20;1.93;;;16.20;1.00;;;;;;5058094;28;20216;-92
2022/07/15 06:59:17;;;;;;;6.23;1.93;;;16.00;1.00;;;;;;5052767;28;20177;-93
2022/07/15 07:01:43;;;;;;;4.03;1.60;;;15.90;1.00;;;;;;5057312;28;20231;-93
2022/07/15 07:04:14;;;;;;;6.60;1.90;;;15.90;99.90;;;;;;5058463;28;20184;-94
2022/07/15 07:06:40;;;;;;;4.33;1.93;;;16.00;1.00;;;;;;5059116;28;20662;-92
2022/07/15 07:09:06;;;;;;;4.93;1.53;;;16.10;99.90;;;;;;5054303;28;20198;-93
2022/07/15 07:11:32;;;;;;;4.67;1.40;;;15.90;99.90;;;;;;5059252;28;20200;-94
2022/07/15 07:13:59;;;;;;;4.40;1.50;;;16.10;99.90;;;;;;5059385;28;20164;-92
2022/07/15 07:16:25;;;;;;;4.80;1.50;;;16.10;99.90;;;;;;5059234;28;20195;-94
2022/07/15 07:18:52;;;;;;;5.53;1.40;;;16.10;1.00;;;;;;5059458;28;20176;-92
2022/07/15 07:21:18;;;;;;;3.87;1.33;;;16.10;1.00;;;;;;5059286;28;20210;-94
2022/07/15 07:23:44;;;;;;;7.27;1.63;;;16.20;99.90;;;;;;5059312;28;20187;-93
2022/07/15 07:26:11;;;;;;;5.77;1.43;;;16.10;1.00;;;;;;5059246;28;20176;-93
2022/07/15 07:28:40;;;;;;;3.77;1.30;;;16.10;99.90;;;;;;5059279;28;20179;-94
2022/07/15 07:31:06;;;;;;;3.53;1.20;;;16.20;1.00;;;;;;5059066;28;20299;-94
2022/07/15 07:33:32;;;;;;;3.60;0.90;;;16.10;1.00;;;;;;5059682;28;20183;-93
2022/07/15 07:35:57;;;;;;;5.83;1.33;;;16.20;1.00;;;;;;5059105;28;20204;-95
2022/07/15 07:38:23;;;;;;;6.00;1.30;;;16.00;99.90;;;;;;5057866;28;20180;-93
2022/07/15 07:40:49;;;;;;;4.83;1.37;;;16.10;1.00;;;;;;5058430;28;20254;-92
2022/07/15 07:43:17;;;;;;;4.13;1.37;;;16.20;99.90;;;;;;5053101;28;20214;-92
2022/07/15 07:45:43;;;;;;;6.57;1.40;;;16.60;99.90;;;;;;5052277;28;20168;-93
2022/07/15 07:48:08;;;;;;;4.20;1.70;;;16.40;1.00;;;;;;5057617;28;20190;-92
2022/07/15 07:50:35;;;;;;;5.20;1.50;;;16.60;1.00;;;;;;5056993;28;20224;-92
2022/07/15 07:53:01;;;;;;;5.27;1.50;;;16.60;26.10;;;;;;5052434;28;20164;-92
2022/07/15 07:55:26;;;;;;;2.67;1.23;;;16.60;99.90;;;;;;5054999;28;20194;-92
2022/07/15 07:57:55;;;;;;;4.27;1.40;;;16.70;96.30;;;;;;5057159;28;20222;-92
2022/07/15 08:00:22;;;;;;;4.70;1.50;;;16.80;1.00;;;;;;5057405;28;20184;-94
2022/07/15 08:02:48;;;;;;;4.97;1.40;;;16.80;1.00;;;;;;5056321;28;20283;-92
2022/07/15 08:05:14;;;;;;;7.10;1.50;;;17.00;99.90;;;;;;5055805;28;20240;-93
2022/07/15 08:07:41;;;;;;;5.83;1.30;;;17.20;1.00;;;;;;5057763;28;20176;-93
2022/07/15 08:10:09;;;;;;;2.53;1.00;;;17.20;84.00;;;;;;5055408;28;20208;-92
2022/07/15 08:12:36;;;;;;;3.50;1.27;;;17.40;1.00;;;;;;5057705;28;20184;-92
2022/07/15 08:15:03;;;;;;;1.87;0.97;;;17.50;1.00;;;;;;5052133;28;20164;-92
2022/07/15 08:17:29;;;;;;;8.03;1.10;;;17.60;99.90;;;;;;5047169;28;20196;-92
2022/07/15 08:19:54;;;;;;;4.83;0.97;;;17.60;99.90;;;;;;5055425;28;20218;-93
2022/07/15 08:22:20;;;;;;;2.53;0.70;;;17.60;1.00;;;;;;5053305;28;20183;-92
2022/07/15 08:24:45;;;;;;;5.63;0.90;;;17.70;1.00;;;;;;5054507;28;20181;-91
2022/07/15 08:27:11;;;;;;;4.20;0.87;;;17.80;99.90;;;;;;5051869;28;20174;-92
2022/07/15 08:29:38;;;;;;;3.77;0.87;;;17.50;1.00;;;;;;5050768;28;20204;-92
2022/07/15 08:32:04;;;;;;;3.47;0.90;;;17.40;1.00;;;;;;5058469;28;20197;-93
2022/07/15 08:34:30;;;;;;;8.00;1.03;;;17.50;99.90;;;;;;5055785;28;20169;-93
2022/07/15 08:36:55;;;;;;;3.13;1.00;;;17.60;99.90;;;;;;5053209;28;20245;-93
2022/07/15 08:39:21;;;;;;;1.23;0.70;;;17.70;99.90;;;;;;5057575;28;20263;-93
2022/07/15 08:41:46;;;;;;;2.47;0.93;;;17.80;1.00;;;;;;5055662;28;20223;-91
2022/07/15 08:44:12;;;;;;;2.97;0.90;;;17.80;32.60;;;;;;5049473;28;20218;-93
2022/07/15 08:46:44;;;;;;;2.47;0.63;;;18.10;99.90;;;;;;5057776;28;20192;-93
2022/07/15 08:49:15;;;;;;;2.90;0.83;;;18.00;1.00;;;;;;5057885;28;20165;-90
2022/07/15 08:51:45;;;;;;;4.43;0.90;;;18.10;99.90;;;;;;5057704;28;20183;-93
2022/07/15 08:54:12;;;;;;;3.60;1.10;;;18.40;99.90;;;;;;5054437;28;20252;-92
2022/07/15 08:56:38;;;;;;;3.60;0.53;;;18.50;1.00;;;;;;5056145;28;20220;-92
2022/07/15 08:59:05;;;;;;;3.30;0.70;;;18.50;95.20;;;;;;5053491;28;20176;-94
2022/07/15 09:01:33;;;;;;;3.33;0.90;;;18.80;99.90;;;;;;5054218;28;20177;-93
2022/07/15 09:03:59;;;;;;;3.40;1.00;;;18.60;99.90;;;;;;5053817;28;20187;-92
2022/07/15 09:06:42;;;;;;;1.10;0.50;;;18.80;99.90;;;;;;5055647;28;20240;-92
2022/07/15 09:09:29;;;;;;;3.90;0.47;;;18.60;99.90;;;;;;5054398;28;20160;-92
2022/07/15 09:12:06;;;;;;;3.37;0.97;;;18.60;99.90;;;;;;5040320;28;20191;-93
2022/07/15 09:14:35;;;;;;;2.73;0.77;;;18.50;99.90;;;;;;5055498;28;20164;-91
2022/07/15 09:17:22;;;;;;;5.17;0.67;;;18.30;99.90;;;;;;5054103;28;20271;-91
2022/07/15 09:20:04;;;;;;;3.63;1.73;;;18.30;99.90;;;;;;5055663;28;20231;-91
2022/07/15 09:22:51;;;;;;;2.40;0.90;;;18.40;99.90;;;;;;5055827;28;20220;-93
2022/07/15 09:25:17;;;;;;;1.33;0.80;;;18.40;99.90;;;;;;5052727;28;20192;-92
2022/07/15 09:27:44;;;;;;;4.23;0.87;;;18.60;99.90;;;;;;5055510;28;20271;-93
2022/07/15 09:33:36;;;;;;;3.30;0.70;;;18.80;99.90;;;;;;5054022;28;20240;-91
2022/07/15 09:36:16;;;;;;;3.97;1.17;;;19.00;77.50;;;;;;5054853;28;20199;-91
2022/07/15 09:38:47;;;;;;;1.53;0.93;;;19.10;99.90;;;;;;5036582;28;20184;-91
2022/07/15 09:41:26;;;;;;;4.73;0.80;;;19.20;61.90;;;;;;5038909;28;20219;-91
2022/07/15 09:44:01;;;;;;;4.30;0.90;;;19.40;1.00;;;;;;5056385;28;20157;-92
2022/07/15 09:46:43;;;;;;;5.13;1.00;;;19.30;1.00;;;;;;5054946;28;20179;-92
2022/07/15 09:49:13;;;;;;;5.70;1.50;;;19.30;1.00;;;;;;5056070;28;20188;-93
2022/07/15 09:51:59;;;;;;;6.57;0.97;;;19.80;59.50;;;;;;5051468;28;20183;-93
2022/07/15 09:54:30;;;;;;;1.97;1.07;;;19.60;1.00;;;;;;5052305;28;20176;-92
2022/07/15 09:56:57;;;;;;;2.67;0.80;;;19.50;99.90;;;;;;5050732;28;20202;-91
2022/07/15 09:59:23;;;;;;;4.80;0.87;;;19.40;1.00;;;;;;5053705;28;20195;-93
2022/07/15 10:01:49;;;;;;;7.47;0.90;;;19.40;1.00;;;;;;5052678;28;20185;-92
2022/07/15 10:04:20;;;;;;;3.93;0.87;;;19.50;1.00;;;;;;5052450;28;20185;-92
2022/07/15 10:06:48;;;;;;;0.97;0.60;;;19.50;99.90;;;;;;5051259;28;20172;-93
2022/07/15 10:09:14;;;;;;;2.23;0.50;;;19.70;99.90;;;;;;5052927;28;20264;-91
2022/07/15 10:11:52;;;;;;;3.03;1.00;;;19.50;99.90;;;;;;5054830;28;20203;-93
2022/07/15 10:14:50;;;;;;;2.50;0.80;;;19.60;1.00;;;;;;5053056;28;20210;-92
2022/07/15 10:17:35;;;;;;;3.90;0.97;;;19.70;99.90;;;;;;5054379;28;20196;-92
2022/07/15 10:20:17;;;;;;;3.10;0.70;;;19.80;99.90;;;;;;5035957;28;20203;-92
2022/07/15 10:22:52;;;;;;;2.73;0.80;;;19.90;99.90;;;;;;5054685;28;20175;-93
2022/07/15 10:25:47;;;;;;;2.23;1.00;;;20.00;99.90;;;;;;5058582;28;20175;-94
2022/07/15 10:28:23;;;;;;;5.37;0.77;;;20.00;99.90;;;;;;5056478;28;20203;-92
2022/07/15 10:31:28;;;;;;;1.87;0.83;;;20.00;99.90;;;;;;5057909;28;20200;-93
2022/07/15 10:34:03;;;;;;;2.40;0.70;;;19.90;99.90;;;;;;5040343;28;20180;-92
2022/07/15 10:36:53;;;;;;;2.77;1.10;;;19.80;99.90;;;;;;5040823;28;20222;-93
2022/07/15 10:39:21;;;;;;;3.33;1.00;;;19.80;99.90;;;;;;5054362;28;20176;-93
2022/07/15 10:41:53;;;;;;;5.37;0.63;;;19.80;89.80;;;;;;5056703;28;20157;-93
2022/07/15 10:44:19;;;;;;;1.90;0.83;;;20.00;18.10;;;;;;5058172;28;20176;-93
2022/07/15 10:46:46;;;;;;;2.97;0.77;;;19.90;99.90;;;;;;5057635;28;20176;-93
2022/07/15 10:49:14;;;;;;;1.17;0.90;;;20.10;99.90;;;;;;5056599;28;20187;-93
2022/07/15 10:51:40;;;;;;;1.70;0.73;;;20.20;99.90;;;;;;5040424;28;20161;-93
2022/07/15 10:54:16;;;;;;;1.93;0.93;;;20.20;1.00;;;;;;5041063;28;20221;-93
2022/07/15 10:56:45;;;;;;;1.23;0.63;;;20.10;20.50;;;;;;5041519;28;20196;-93
2022/07/15 10:59:19;;;;;;;2.80;0.70;;;19.90;55.70;;;;;;5056811;28;20168;-93
2022/07/15 11:01:50;;;;;;;1.43;0.77;;;20.20;99.90;;;;;;5057544;28;20168;-92
2022/07/15 11:04:20;;;;;;;4.10;0.90;;;20.40;1.00;;;;;;5057339;28;20167;-93
2022/07/15 11:07:10;;;;;;;0.63;0.53;;;20.30;1.00;;;;;;5054307;28;20521;-93
2022/07/15 11:09:57;;;;;;;2.13;0.63;;;20.50;1.00;;;;;;5038138;28;20272;-93
2022/07/15 11:12:32;;;;;;;2.23;0.70;;;20.50;1.00;;;;;;5056189;28;20211;-92
2022/07/15 11:15:16;;;;;;;2.00;0.80;;;20.80;1.00;;;;;;5038563;28;20163;-92
2022/07/15 11:17:46;;;;;;;2.23;0.70;;;20.80;1.00;;;;;;5054242;28;20200;-92
2022/07/15 11:20:12;;;;;;;1.10;0.60;;;20.60;1.00;;;;;;5056153;28;20256;-92
2022/07/15 11:22:50;;;;;;;7.90;1.00;;;20.60;1.00;;;;;;5041180;28;20240;-93
2022/07/15 11:25:33;;;;;;;3.70;0.60;;;20.70;1.00;;;;;;5056334;28;20187;-92
2022/07/15 11:28:14;;;;;;;1.53;0.70;;;20.70;1.00;;;;;;5068145;22;20612;-78
2022/07/15 11:30:41;;;;;;;5.87;1.33;;;20.80;1.00;;;;;;4996746;28;20235;-76
2022/07/15 11:33:10;;;;;;;2.30;0.80;;;20.80;1.00;;;;;;5014751;28;20173;-75
2022/07/15 11:36:02;;;;;;;2.13;0.73;;;20.80;1.00;;;;;;5015179;28;20181;-75
2022/07/15 11:38:37;;;;;;;3.60;0.70;;;21.00;1.00;;;;;;5010476;28;20189;-77
2022/07/15 11:46:45;;;;;;;1.97;0.60;;;21.40;1.00;;;;;;5015283;28;20239;-76
2022/07/15 11:49:10;;;;;;;3.63;0.60;;;21.30;99.90;;;;;;5014725;28;20669;-75
2022/07/15 11:51:36;;;;;;;2.13;0.90;;;21.50;1.00;;;;;;5014662;28;20251;-76
2022/07/15 11:54:02;;;;;;;1.13;0.60;;;21.40;1.00;;;;;;5014559;28;20179;-76
2022/07/15 11:56:28;;;;;;;2.93;0.67;;;21.40;1.00;;;;;;4996882;28;20200;-76
2022/07/15 11:58:55;;;;;;;2.37;0.80;;;21.30;99.90;;;;;;5014446;28;20169;-76
2022/07/15 12:01:23;;;;;;;1.43;0.50;;;21.10;1.00;;;;;;4996691;28;20177;-76
2022/07/15 12:03:53;;;;;;;1.23;0.60;;;21.20;1.00;;;;;;4996434;28;20211;-76
2022/07/15 12:06:23;;;;;;;0.70;0.40;;;21.00;1.00;;;;;;4996648;28;20263;-75
2022/07/15 12:08:52;;;;;;;3.53;0.57;;;21.00;1.00;;;;;;5014657;28;20184;-76
2022/07/15 12:11:24;;;;;;;1.70;0.50;;;20.90;1.00;;;;;;5001071;28;20173;-76
2022/07/15 12:13:56;;;;;;;2.30;0.60;;;20.80;1.00;;;;;;5017806;28;20164;-76
2022/07/15 12:16:35;;;;;;;2.07;0.77;;;20.90;1.00;;;;;;5017167;28;20731;-75
2022/07/15 12:19:05;;;;;;;1.37;0.70;;;20.90;1.00;;;;;;4996384;28;20179;-76
2022/07/15 12:21:32;;;;;;;1.77;0.63;;;21.00;1.00;;;;;;4996282;28;20181;-76
2022/07/15 12:24:12;;;;;;;2.10;0.80;;;21.00;1.00;;;;;;5013636;28;20523;-76
2022/07/15 12:26:48;;;;;;;2.93;0.70;;;21.10;1.00;;;;;;5014048;28;20227;-75
2022/07/15 12:29:15;;;;;;;2.37;0.50;;;21.10;1.00;;;;;;4995926;28;20224;-76
2022/07/15 12:31:43;;;;;;;3.50;1.50;;;21.20;1.00;;;;;;4996033;28;20670;-76
2022/07/15 12:34:09;;;;;;;5.47;1.80;;;21.20;1.00;;;;;;5013570;28;20632;-76
2022/07/15 12:36:37;;;;;;;2.27;1.10;;;21.30;1.00;;;;;;5013759;28;20303;-76
2022/07/15 12:39:04;;;;;;;0.30;0.30;;;21.30;1.00;;;;;;4995919;28;20169;-76
2022/07/15 12:41:31;;;;;;;2.00;0.70;;;21.10;99.90;;;;;;4995877;28;20558;-76
2022/07/15 12:43:59;;;;;;;2.70;0.80;;;21.30;99.90;;;;;;5013323;28;20247;-76
2022/07/15 12:46:48;;;;;;;1.20;0.53;;;21.30;99.90;;;;;;4995771;28;20196;-76
2022/07/15 12:49:36;;;;;;;1.00;0.70;;;21.20;99.90;;;;;;4995795;28;20184;-76
2022/07/15 12:52:19;;;;;;;2.13;0.47;;;21.20;99.90;;;;;;5013663;28;20165;-75
2022/07/15 12:54:45;;;;;;;1.90;0.60;;;21.20;99.90;;;;;;5013769;28;20403;-75
2022/07/15 12:57:28;;;;;;;1.90;0.50;;;21.40;99.90;;;;;;5013535;28;20280;-75
2022/07/15 13:00:10;;;;;;;2.67;0.73;;;21.40;99.90;;;;;;5013526;28;20154;-76
2022/07/15 13:03:22;;;;;;;1.70;0.60;;;21.50;99.90;;;;;;5013239;28;20620;-76
2022/07/15 13:05:49;;;;;;;2.40;0.60;;;21.70;99.90;;;;;;4914498;29;20231;-75
2022/07/15 13:08:17;;;;;;;1.73;0.70;;;21.70;99.90;;;;;;4898833;29;20199;-75
2022/07/15 13:10:45;;;;;;;1.37;0.60;;;21.80;99.90;;;;;;4960313;28;20181;-76
2022/07/15 13:13:13;;;;;;;2.20;0.40;;;21.60;99.90;;;;;;5013326;28;20172;-75
2022/07/15 13:15:38;;;;;;;1.93;0.50;;;21.80;99.90;;;;;;5013002;28;20189;-75